Overview Statistics Trail Chart Weather Telemetry Raw packets
 

This is the latest recevied weather packets stored in our database for station/object DK0KTL-4. If no packets are shown the sender has not sent any weather packets the latest 10 day(s).

<< 86 87 88 89 90 91 92 >>
Time Temp. Humidity Pressure Rain* Wind** Luminosity Snow
1787891126 19.44° C 83% 1009.3 hPa 0 mm - - -
1787890823 18.89° C 84% 1009.4 hPa 0 mm - - -
1787890523 19.44° C 84% 1008.9 hPa 0 mm - - -
1787890223 19.44° C 83% 1007.9 hPa 0 mm - - -
1787889923 20° C 82% 1008.2 hPa 0 mm - - -
1787889622 20° C 81% 1009.3 hPa 0 mm - - -
1787889322 20° C 79% 1009.9 hPa 0 mm - - -
1787889022 20° C 79% 1010.5 hPa 0 mm - - -
1787888722 20° C 80% 1010.7 hPa 0 mm - - -
1787888421 20° C 78% 1010.8 hPa 0 mm - - -
1787888121 20° C 80% 1010.9 hPa 0 mm - - -
1787887820 20° C 80% 1011.1 hPa 0 mm - - -
1787887520 19.44° C 81% 1011.3 hPa 0 mm - - -
1787887220 18.89° C 84% 1011.5 hPa 0 mm - - -
1787886920 17.78° C 88% 1011.6 hPa 0 mm - - -
1787886619 17.22° C 90% 1011.6 hPa 0 mm - - -
1787886319 16.67° C 92% 1011.1 hPa 0 mm - - -
1787885719 16.67° C 91% 1010.2 hPa 0 mm - - -
1787885418 16.67° C 91% 1009.8 hPa 0 mm - - -
1787885118 16.67° C 91% 1009.7 hPa 0 mm - - -
1787884818 16.67° C 91% 1009.7 hPa 0 mm - - -
1787884517 16.67° C 90% 1009.8 hPa 0 mm - - -
1787884217 16.67° C 90% 1009.7 hPa 0 mm - - -
1787883917 16.67° C 90% 1009.5 hPa 0 mm - - -
1787883616 16.67° C 90% 1009.4 hPa 0 mm - - -

* Rain latest hour (hover to see other rain measurements)
** Current wind speed in m/s (hover to see current wind gust speed)